sensor_id;sensor_type;location;lat;lon;timestamp;pressure;altitude;pressure_sealevel;temperature;humidity
7824;BME280;3957;48.61947800;9.05303100;2023-02-28T00:00:44;96586.56;;;-4.79;86.63
7824;BME280;3957;48.61947800;9.05303100;2023-02-28T00:01:44;96584.22;;;-4.84;86.34
7824;BME280;3957;48.61947800;9.05303100;2023-02-28T00:02:45;96583.50;;;-4.86;86.57
7824;BME280;3957;48.61947800;9.05303100;2023-02-28T00:03:46;96591.31;;;-4.86;87.09
7824;BME280;3957;48.61947800;9.05303100;2023-02-28T00:04:46;96585.84;;;-4.96;87.56
7824;BME280;3957;48.61947800;9.05303100;2023-02-28T00:05:52;96587.06;;;-5.01;88.13
7824;BME280;3957;48.61947800;9.05303100;2023-02-28T00:06:53;96587.06;;;-5.01;88.50
7824;BME280;3957;48.61947800;9.05303100;2023-02-28T00:07:54;96588.63;;;-4.99;88.73
7824;BME280;3957;48.61947800;9.05303100;2023-02-28T00:08:54;96591.22;;;-4.99;89.06
7824;BME280;3957;48.61947800;9.05303100;2023-02-28T00:09:54;96585.47;;;-5.04;88.93
7824;BME280;3957;48.61947800;9.05303100;2023-02-28T00:10:55;96588.81;;;-5.02;88.79
7824;BME280;3957;48.61947800;9.05303100;2023-02-28T00:11:55;96581.91;;;-5.03;89.03
7824;BME280;3957;48.61947800;9.05303100;2023-02-28T00:13:02;96593.00;;;-4.99;89.10
7824;BME280;3957;48.61947800;9.05303100;2023-02-28T00:14:03;96586.97;;;-5.00;89.38
7824;BME280;3957;48.61947800;9.05303100;2023-02-28T00:15:09;96585.19;;;-4.99;89.47
7824;BME280;3957;48.61947800;9.05303100;2023-02-28T00:16:13;96583.22;;;-4.96;89.01
7824;BME280;3957;48.61947800;9.05303100;2023-02-28T00:17:13;96593.78;;;-4.97;87.81
7824;BME280;3957;48.61947800;9.05303100;2023-02-28T00:18:14;96595.25;;;-5.07;89.16
7824;BME280;3957;48.61947800;9.05303100;2023-02-28T00:19:14;96593.41;;;-5.05;89.26
7824;BME280;3957;48.61947800;9.05303100;2023-02-28T00:20:15;96579.41;;;-5.04;89.37
7824;BME280;3957;48.61947800;9.05303100;2023-02-28T00:21:17;96587.22;;;-5.04;89.04
7824;BME280;3957;48.61947800;9.05303100;2023-02-28T00:22:20;96584.72;;;-5.06;89.12
7824;BME280;3957;48.61947800;9.05303100;2023-02-28T00:23:20;96589.22;;;-5.08;88.94
7824;BME280;3957;48.61947800;9.05303100;2023-02-28T00:24:21;96580.81;;;-5.13;89.99
7824;BME280;3957;48.61947800;9.05303100;2023-02-28T00:25:24;96586.16;;;-5.15;90.00
7824;BME280;3957;48.61947800;9.05303100;2023-02-28T00:26:24;96578.56;;;-5.19;90.60
7824;BME280;3957;48.61947800;9.05303100;2023-02-28T00:27:25;96581.75;;;-5.14;91.18
7824;BME280;3957;48.61947800;9.05303100;2023-02-28T00:28:25;96585.00;;;-5.25;90.96
7824;BME280;3957;48.61947800;9.05303100;2023-02-28T00:29:26;96573.91;;;-5.14;91.11
7824;BME280;3957;48.61947800;9.05303100;2023-02-28T00:30:26;96578.88;;;-5.09;90.81
7824;BME280;3957;48.61947800;9.05303100;2023-02-28T00:31:26;96581.50;;;-5.09;90.70
7824;BME280;3957;48.61947800;9.05303100;2023-02-28T00:32:27;96574.78;;;-5.14;91.59
7824;BME280;3957;48.61947800;9.05303100;2023-02-28T00:33:28;96581.56;;;-5.11;91.18
7824;BME280;3957;48.61947800;9.05303100;2023-02-28T00:34:28;96576.06;;;-5.06;91.01
7824;BME280;3957;48.61947800;9.05303100;2023-02-28T00:35:29;96581.50;;;-5.09;90.99
7824;BME280;3957;48.61947800;9.05303100;2023-02-28T00:36:29;96581.56;;;-5.11;90.49
7824;BME280;3957;48.61947800;9.05303100;2023-02-28T00:37:30;96580.94;;;-5.15;90.98
7824;BME280;3957;48.61947800;9.05303100;2023-02-28T00:38:30;96578.56;;;-5.19;91.24
7824;BME280;3957;48.61947800;9.05303100;2023-02-28T00:39:31;96578.03;;;-5.24;92.59
7824;BME280;3957;48.61947800;9.05303100;2023-02-28T00:40:31;96580.75;;;-5.26;92.79
7824;BME280;3957;48.61947800;9.05303100;2023-02-28T00:41:32;96584.56;;;-5.17;91.65
7824;BME280;3957;48.61947800;9.05303100;2023-02-28T00:42:33;96581.84;;;-5.16;91.39
7824;BME280;3957;48.61947800;9.05303100;2023-02-28T00:43:34;96579.13;;;-5.14;92.41
7824;BME280;3957;48.61947800;9.05303100;2023-02-28T00:44:35;96581.28;;;-5.21;92.39
7824;BME280;3957;48.61947800;9.05303100;2023-02-28T00:45:36;96585.47;;;-5.18;92.28
7824;BME280;3957;48.61947800;9.05303100;2023-02-28T00:46:38;96585.47;;;-5.18;92.94
7824;BME280;3957;48.61947800;9.05303100;2023-02-28T00:47:38;96580.84;;;-5.27;93.29
7824;BME280;3957;48.61947800;9.05303100;2023-02-28T00:48:39;96578.31;;;-5.29;93.47
7824;BME280;3957;48.61947800;9.05303100;2023-02-28T00:49:39;96579.63;;;-5.36;93.93
7824;BME280;3957;48.61947800;9.05303100;2023-02-28T00:50:40;96586.81;;;-5.40;94.15
7824;BME280;3957;48.61947800;9.05303100;2023-02-28T00:51:40;96582.72;;;-5.44;95.29
7824;BME280;3957;48.61947800;9.05303100;2023-02-28T00:52:40;96575.63;;;-5.42;95.21
7824;BME280;3957;48.61947800;9.05303100;2023-02-28T00:53:41;96581.09;;;-5.32;94.88
7824;BME280;3957;48.61947800;9.05303100;2023-02-28T00:54:41;96582.50;;;-5.26;93.81
7824;BME280;3957;48.61947800;9.05303100;2023-02-28T00:55:41;96579.25;;;-5.30;94.57
7824;BME280;3957;48.61947800;9.05303100;2023-02-28T00:56:42;96570.41;;;-5.27;93.86
7824;BME280;3957;48.61947800;9.05303100;2023-02-28T00:57:42;96580.66;;;-5.24;93.69
7824;BME280;3957;48.61947800;9.05303100;2023-02-28T00:58:43;96576.47;;;-5.27;94.14
7824;BME280;3957;48.61947800;9.05303100;2023-02-28T00:59:43;96575.78;;;-5.31;94.79
7824;BME280;3957;48.61947800;9.05303100;2023-02-28T01:00:45;96582.13;;;-5.35;95.16
7824;BME280;3957;48.61947800;9.05303100;2023-02-28T01:01:49;96577.94;;;-5.37;95.31
7824;BME280;3957;48.61947800;9.05303100;2023-02-28T01:02:49;96572.56;;;-5.34;95.23
7824;BME280;3957;48.61947800;9.05303100;2023-02-28T01:03:49;96577.88;;;-5.36;95.00
7824;BME280;3957;48.61947800;9.05303100;2023-02-28T01:04:50;96571.06;;;-5.38;95.04
7824;BME280;3957;48.61947800;9.05303100;2023-02-28T01:05:51;96571.31;;;-5.43;95.43
7824;BME280;3957;48.61947800;9.05303100;2023-02-28T01:06:53;96579.81;;;-5.39;95.42
7824;BME280;3957;48.61947800;9.05303100;2023-02-28T01:07:53;96578.22;;;-5.42;95.70
7824;BME280;3957;48.61947800;9.05303100;2023-02-28T01:08:53;96577.19;;;-5.39;95.75
7824;BME280;3957;48.61947800;9.05303100;2023-02-28T01:09:54;96573.28;;;-5.32;95.31
7824;BME280;3957;48.61947800;9.05303100;2023-02-28T01:10:55;96567.81;;;-5.27;94.47
7824;BME280;3957;48.61947800;9.05303100;2023-02-28T01:11:56;96573.94;;;-5.28;94.27
7824;BME280;3957;48.61947800;9.05303100;2023-02-28T01:12:56;96574.31;;;-5.35;95.04
7824;BME280;3957;48.61947800;9.05303100;2023-02-28T01:13:57;96577.09;;;-5.38;95.26
7824;BME280;3957;48.61947800;9.05303100;2023-02-28T01:14:57;96572.34;;;-5.46;96.27
7824;BME280;3957;48.61947800;9.05303100;2023-02-28T01:15:58;96565.38;;;-5.45;96.07
7824;BME280;3957;48.61947800;9.05303100;2023-02-28T01:16:58;96580.53;;;-5.37;95.49
7824;BME280;3957;48.61947800;9.05303100;2023-02-28T01:17:59;96576.44;;;-5.41;96.31
7824;BME280;3957;48.61947800;9.05303100;2023-02-28T01:18:59;96575.91;;;-5.47;96.12
7824;BME280;3957;48.61947800;9.05303100;2023-02-28T01:20:00;96574.69;;;-5.41;96.01
7824;BME280;3957;48.61947800;9.05303100;2023-02-28T01:21:05;96573.41;;;-5.48;96.25
7824;BME280;3957;48.61947800;9.05303100;2023-02-28T01:22:06;96573.84;;;-5.41;95.65
7824;BME280;3957;48.61947800;9.05303100;2023-02-28T01:23:09;96571.50;;;-5.46;95.72
7824;BME280;3957;48.61947800;9.05303100;2023-02-28T01:24:09;96571.91;;;-5.52;96.52
7824;BME280;3957;48.61947800;9.05303100;2023-02-28T01:25:09;96575.81;;;-5.45;96.36
7824;BME280;3957;48.61947800;9.05303100;2023-02-28T01:26:16;96565.47;;;-5.47;95.54
7824;BME280;3957;48.61947800;9.05303100;2023-02-28T01:27:16;96570.31;;;-5.55;95.85
7824;BME280;3957;48.61947800;9.05303100;2023-02-28T01:28:17;96570.41;;;-5.56;95.87
7824;BME280;3957;48.61947800;9.05303100;2023-02-28T01:29:17;96570.56;;;-5.59;96.34
7824;BME280;3957;48.61947800;9.05303100;2023-02-28T01:30:18;96572.81;;;-5.53;97.17
7824;BME280;3957;48.61947800;9.05303100;2023-02-28T01:31:21;96568.34;;;-5.51;96.37
7824;BME280;3957;48.61947800;9.05303100;2023-02-28T01:32:22;96566.94;;;-5.57;96.56
7824;BME280;3957;48.61947800;9.05303100;2023-02-28T01:33:24;96564.53;;;-5.60;96.98
7824;BME280;3957;48.61947800;9.05303100;2023-02-28T01:34:25;96570.94;;;-5.51;96.75
7824;BME280;3957;48.61947800;9.05303100;2023-02-28T01:35:25;96565.19;;;-5.56;97.44
7824;BME280;3957;48.61947800;9.05303100;2023-02-28T01:36:26;96563.88;;;-5.49;97.33
7824;BME280;3957;48.61947800;9.05303100;2023-02-28T01:37:26;96571.97;;;-5.54;97.00
7824;BME280;3957;48.61947800;9.05303100;2023-02-28T01:38:27;96568.53;;;-5.54;96.54
7824;BME280;3957;48.61947800;9.05303100;2023-02-28T01:39:28;96565.72;;;-5.51;97.36
7824;BME280;3957;48.61947800;9.05303100;2023-02-28T01:40:28;96564.72;;;-5.49;96.58
7824;BME280;3957;48.61947800;9.05303100;2023-02-28T01:41:31;96568.44;;;-5.53;97.06
7824;BME280;3957;48.61947800;9.05303100;2023-02-28T01:42:33;96563.88;;;-5.49;96.93
7824;BME280;3957;48.61947800;9.05303100;2023-02-28T01:46:17;96562.47;;;-5.40;96.77
7824;BME280;3957;48.61947800;9.05303100;2023-02-28T01:47:17;96565.63;;;-5.50;97.46
7824;BME280;3957;48.61947800;9.05303100;2023-02-28T01:48:19;96559.13;;;-5.57;97.78
7824;BME280;3957;48.61947800;9.05303100;2023-02-28T01:49:21;96559.88;;;-5.55;98.09
7824;BME280;3957;48.61947800;9.05303100;2023-02-28T01:50:25;96564.81;;;-5.50;98.21
7824;BME280;3957;48.61947800;9.05303100;2023-02-28T01:51:38;96557.19;;;-5.53;98.33
7824;BME280;3957;48.61947800;9.05303100;2023-02-28T01:52:39;96564.72;;;-5.49;99.00
7824;BME280;3957;48.61947800;9.05303100;2023-02-28T01:53:46;96558.19;;;-5.56;99.29
7824;BME280;3957;48.61947800;9.05303100;2023-02-28T01:54:58;96555.78;;;-5.44;98.76
7824;BME280;3957;48.61947800;9.05303100;2023-02-28T01:55:59;96557.34;;;-5.42;98.56
7824;BME280;3957;48.61947800;9.05303100;2023-02-28T01:57:10;96550.66;;;-5.46;98.82
7824;BME280;3957;48.61947800;9.05303100;2023-02-28T01:58:13;96552.25;;;-5.43;98.66
7824;BME280;3957;48.61947800;9.05303100;2023-02-28T01:59:20;96548.25;;;-5.49;98.85
7824;BME280;3957;48.61947800;9.05303100;2023-02-28T02:00:25;96540.69;;;-5.54;99.57
7824;BME280;3957;48.61947800;9.05303100;2023-02-28T02:01:27;96548.03;;;-5.46;99.99
7824;BME280;3957;48.61947800;9.05303100;2023-02-28T02:02:28;96548.63;;;-5.41;99.25
7824;BME280;3957;48.61947800;9.05303100;2023-02-28T02:03:30;96551.94;;;-5.39;99.35
7824;BME280;3957;48.61947800;9.05303100;2023-02-28T02:04:36;96551.69;;;-5.34;99.35
7824;BME280;3957;48.61947800;9.05303100;2023-02-28T02:05:39;96554.47;;;-5.37;98.92
7824;BME280;3957;48.61947800;9.05303100;2023-02-28T02:06:43;96547.75;;;-5.41;98.99
7824;BME280;3957;48.61947800;9.05303100;2023-02-28T02:07:47;96549.53;;;-5.42;99.72
7824;BME280;3957;48.61947800;9.05303100;2023-02-28T02:08:48;96545.72;;;-5.51;99.78
7824;BME280;3957;48.61947800;9.05303100;2023-02-28T02:09:49;96544.31;;;-5.42;99.82
7824;BME280;3957;48.61947800;9.05303100;2023-02-28T02:10:57;96546.09;;;-5.42;99.38
7824;BME280;3957;48.61947800;9.05303100;2023-02-28T02:12:03;96540.31;;;-5.48;99.88
7824;BME280;3957;48.61947800;9.05303100;2023-02-28T02:13:43;96546.75;;;-5.53;100.00
7824;BME280;3957;48.61947800;9.05303100;2023-02-28T02:15:12;96544.22;;;-5.40;99.90
7824;BME280;3957;48.61947800;9.05303100;2023-02-28T02:16:35;96539.75;;;-5.38;99.63
7824;BME280;3957;48.61947800;9.05303100;2023-02-28T02:17:41;96540.88;;;-5.42;99.83
7824;BME280;3957;48.61947800;9.05303100;2023-02-28T02:18:46;96536.50;;;-5.42;100.00
7824;BME280;3957;48.61947800;9.05303100;2023-02-28T02:23:07;96535.00;;;-5.32;100.00
7824;BME280;3957;48.61947800;9.05303100;2023-02-28T02:24:27;96535.09;;;-5.33;100.00
7824;BME280;3957;48.61947800;9.05303100;2023-02-28T02:27:17;96531.28;;;-5.27;100.00
7824;BME280;3957;48.61947800;9.05303100;2023-02-28T02:28:52;96521.38;;;-5.22;100.00
7824;BME280;3957;48.61947800;9.05303100;2023-02-28T02:31:48;96527.91;;;-5.30;100.00
7824;BME280;3957;48.61947800;9.05303100;2023-02-28T02:33:08;96522.97;;;-5.20;100.00
7824;BME280;3957;48.61947800;9.05303100;2023-02-28T02:37:11;96526.34;;;-5.18;100.00
7824;BME280;3957;48.61947800;9.05303100;2023-02-28T02:38:32;96530.59;;;-5.17;100.00
7824;BME280;3957;48.61947800;9.05303100;2023-02-28T02:39:40;96531.34;;;-5.15;100.00
7824;BME280;3957;48.61947800;9.05303100;2023-02-28T02:41:53;96527.25;;;-5.19;100.00
7824;BME280;3957;48.61947800;9.05303100;2023-02-28T02:43:13;96523.31;;;-5.12;100.00
7824;BME280;3957;48.61947800;9.05303100;2023-02-28T02:44:50;96525.72;;;-5.08;100.00
7824;BME280;3957;48.61947800;9.05303100;2023-02-28T02:45:59;96521.91;;;-5.03;100.00
7824;BME280;3957;48.61947800;9.05303100;2023-02-28T02:47:10;96527.88;;;-5.01;100.00
7824;BME280;3957;48.61947800;9.05303100;2023-02-28T02:48:15;96519.53;;;-4.93;100.00
7824;BME280;3957;48.61947800;9.05303100;2023-02-28T02:49:24;96521.81;;;-5.01;100.00
7824;BME280;3957;48.61947800;9.05303100;2023-02-28T02:50:30;96532.91;;;-4.98;100.00
7824;BME280;3957;48.61947800;9.05303100;2023-02-28T02:51:35;96527.88;;;-5.01;100.00
7824;BME280;3957;48.61947800;9.05303100;2023-02-28T02:52:44;96533.91;;;-5.00;99.96
7824;BME280;3957;48.61947800;9.05303100;2023-02-28T02:53:50;96523.72;;;-4.90;100.00
7824;BME280;3957;48.61947800;9.05303100;2023-02-28T02:54:54;96534.72;;;-4.85;99.27
7824;BME280;3957;48.61947800;9.05303100;2023-02-28T02:55:58;96527.09;;;-4.88;99.81
7824;BME280;3957;48.61947800;9.05303100;2023-02-28T02:57:04;96528.78;;;-4.87;99.52
7824;BME280;3957;48.61947800;9.05303100;2023-02-28T02:58:09;96530.84;;;-4.92;99.66
7824;BME280;3957;48.61947800;9.05303100;2023-02-28T02:59:12;96527.38;;;-4.93;99.58
7824;BME280;3957;48.61947800;9.05303100;2023-02-28T03:00:18;96528.13;;;-4.91;100.00
7824;BME280;3957;48.61947800;9.05303100;2023-02-28T03:01:23;96532.22;;;-4.87;100.00
7824;BME280;3957;48.61947800;9.05303100;2023-02-28T03:02:29;96528.03;;;-4.89;100.00
7824;BME280;3957;48.61947800;9.05303100;2023-02-28T03:03:34;96528.44;;;-4.96;100.00
7824;BME280;3957;48.61947800;9.05303100;2023-02-28T03:04:42;96533.56;;;-4.94;99.86
7824;BME280;3957;48.61947800;9.05303100;2023-02-28T03:05:49;96529.97;;;-4.93;99.95
7824;BME280;3957;48.61947800;9.05303100;2023-02-28T03:06:50;96538.56;;;-4.91;100.00
7824;BME280;3957;48.61947800;9.05303100;2023-02-28T03:07:55;96536.78;;;-4.90;100.00
7824;BME280;3957;48.61947800;9.05303100;2023-02-28T03:08:55;96540.06;;;-4.87;100.00
7824;BME280;3957;48.61947800;9.05303100;2023-02-28T03:09:57;96536.69;;;-4.89;100.00
7824;BME280;3957;48.61947800;9.05303100;2023-02-28T03:11:00;96540.53;;;-4.95;100.00
7824;BME280;3957;48.61947800;9.05303100;2023-02-28T03:12:01;96540.41;;;-4.93;100.00
7824;BME280;3957;48.61947800;9.05303100;2023-02-28T03:13:18;96539.78;;;-4.97;100.00
7824;BME280;3957;48.61947800;9.05303100;2023-02-28T03:15:51;96535.69;;;-5.01;100.00
7824;BME280;3957;48.61947800;9.05303100;2023-02-28T03:19:44;96535.25;;;-5.07;100.00
7824;BME280;3957;48.61947800;9.05303100;2023-02-28T03:23:23;96529.19;;;-5.08;100.00
7824;BME280;3957;48.61947800;9.05303100;2023-02-28T03:25:45;96537.09;;;-4.95;100.00
7824;BME280;3957;48.61947800;9.05303100;2023-02-28T03:27:07;96530.28;;;-4.98;100.00
7824;BME280;3957;48.61947800;9.05303100;2023-02-28T03:29:35;96524.03;;;-4.95;100.00
7824;BME280;3957;48.61947800;9.05303100;2023-02-28T03:32:13;96534.69;;;-4.98;100.00
7824;BME280;3957;48.61947800;9.05303100;2023-02-28T03:33:33;96534.94;;;-4.88;100.00
7824;BME280;3957;48.61947800;9.05303100;2023-02-28T03:34:39;96530.25;;;-4.83;100.00
7824;BME280;3957;48.61947800;9.05303100;2023-02-28T03:35:50;96531.91;;;-4.82;100.00
7824;BME280;3957;48.61947800;9.05303100;2023-02-28T03:36:55;96533.50;;;-4.80;100.00
7824;BME280;3957;48.61947800;9.05303100;2023-02-28T03:38:09;96528.94;;;-4.76;100.00
7824;BME280;3957;48.61947800;9.05303100;2023-02-28T03:39:20;96530.63;;;-4.75;100.00
7824;BME280;3957;48.61947800;9.05303100;2023-02-28T03:40:25;96529.91;;;-4.64;100.00
7824;BME280;3957;48.61947800;9.05303100;2023-02-28T03:42:50;96528.34;;;-4.67;100.00
7824;BME280;3957;48.61947800;9.05303100;2023-02-28T03:44:06;96528.97;;;-4.63;100.00
7824;BME280;3957;48.61947800;9.05303100;2023-02-28T03:45:13;96528.25;;;-4.65;100.00
7824;BME280;3957;48.61947800;9.05303100;2023-02-28T03:46:19;96525.53;;;-4.64;100.00
7824;BME280;3957;48.61947800;9.05303100;2023-02-28T03:47:28;96522.50;;;-4.57;100.00
7824;BME280;3957;48.61947800;9.05303100;2023-02-28T03:48:35;96529.53;;;-4.58;100.00
7824;BME280;3957;48.61947800;9.05303100;2023-02-28T03:49:43;96526.22;;;-4.47;100.00
7824;BME280;3957;48.61947800;9.05303100;2023-02-28T03:50:51;96529.00;;;-4.50;100.00
7824;BME280;3957;48.61947800;9.05303100;2023-02-28T03:51:54;96530.06;;;-4.53;100.00
7824;BME280;3957;48.61947800;9.05303100;2023-02-28T03:53:33;96523.50;;;-4.46;100.00
7824;BME280;3957;48.61947800;9.05303100;2023-02-28T03:54:46;96531.94;;;-4.42;100.00
7824;BME280;3957;48.61947800;9.05303100;2023-02-28T03:55:52;96528.03;;;-4.35;100.00
7824;BME280;3957;48.61947800;9.05303100;2023-02-28T03:57:05;96539.16;;;-4.46;100.00
7824;BME280;3957;48.61947800;9.05303100;2023-02-28T03:59:34;96526.34;;;-4.36;100.00
7824;BME280;3957;48.61947800;9.05303100;2023-02-28T04:00:40;96534.50;;;-4.40;100.00
7824;BME280;3957;48.61947800;9.05303100;2023-02-28T04:01:45;96533.03;;;-4.45;100.00
7824;BME280;3957;48.61947800;9.05303100;2023-02-28T04:02:46;96529.59;;;-4.32;100.00
7824;BME280;3957;48.61947800;9.05303100;2023-02-28T04:03:52;96537.19;;;-4.42;100.00
7824;BME280;3957;48.61947800;9.05303100;2023-02-28T04:04:53;96535.53;;;-4.43;100.00
7824;BME280;3957;48.61947800;9.05303100;2023-02-28T04:05:55;96534.88;;;-4.47;100.00
7824;BME280;3957;48.61947800;9.05303100;2023-02-28T04:07:07;96532.41;;;-4.35;100.00
7824;BME280;3957;48.61947800;9.05303100;2023-02-28T04:08:08;96533.88;;;-4.31;100.00
7824;BME280;3957;48.61947800;9.05303100;2023-02-28T04:09:12;96527.69;;;-4.43;100.00
7824;BME280;3957;48.61947800;9.05303100;2023-02-28T04:10:14;96530.41;;;-4.45;100.00
7824;BME280;3957;48.61947800;9.05303100;2023-02-28T04:12:34;96535.09;;;-4.50;100.00
7824;BME280;3957;48.61947800;9.05303100;2023-02-28T04:13:35;96536.78;;;-4.36;100.00
7824;BME280;3957;48.61947800;9.05303100;2023-02-28T04:14:35;96534.91;;;-4.34;100.00
7824;BME280;3957;48.61947800;9.05303100;2023-02-28T04:15:35;96533.03;;;-4.32;100.00
7824;BME280;3957;48.61947800;9.05303100;2023-02-28T04:16:40;96534.28;;;-4.37;100.00
7824;BME280;3957;48.61947800;9.05303100;2023-02-28T04:17:41;96531.94;;;-4.42;100.00
7824;BME280;3957;48.61947800;9.05303100;2023-02-28T04:18:42;96536.78;;;-4.36;100.00
7824;BME280;3957;48.61947800;9.05303100;2023-02-28T04:19:45;96534.50;;;-4.40;100.00
7824;BME280;3957;48.61947800;9.05303100;2023-02-28T04:20:45;96532.50;;;-4.37;100.00
7824;BME280;3957;48.61947800;9.05303100;2023-02-28T04:21:50;96537.81;;;-4.38;100.00
7824;BME280;3957;48.61947800;9.05303100;2023-02-28T04:22:51;96530.75;;;-4.36;100.00
7824;BME280;3957;48.61947800;9.05303100;2023-02-28T04:23:51;96534.91;;;-4.34;100.00
7824;BME280;3957;48.61947800;9.05303100;2023-02-28T04:24:52;96533.03;;;-4.32;100.00
7824;BME280;3957;48.61947800;9.05303100;2023-02-28T04:25:55;96529.06;;;-4.37;100.00
7824;BME280;3957;48.61947800;9.05303100;2023-02-28T04:26:57;96536.69;;;-4.34;100.00
7824;BME280;3957;48.61947800;9.05303100;2023-02-28T04:27:58;96519.88;;;-4.30;100.00
7824;BME280;3957;48.61947800;9.05303100;2023-02-28T04:28:59;96531.16;;;-4.30;100.00
7824;BME280;3957;48.61947800;9.05303100;2023-02-28T04:29:59;96528.19;;;-4.38;100.00
7824;BME280;3957;48.61947800;9.05303100;2023-02-28T04:31:03;96534.38;;;-4.39;100.00
7824;BME280;3957;48.61947800;9.05303100;2023-02-28T04:32:04;96533.75;;;-4.30;100.00
7824;BME280;3957;48.61947800;9.05303100;2023-02-28T04:33:04;96528.03;;;-4.35;100.00
7824;BME280;3957;48.61947800;9.05303100;2023-02-28T04:34:05;96534.91;;;-4.34;100.00
7824;BME280;3957;48.61947800;9.05303100;2023-02-28T04:35:06;96527.28;;;-4.37;100.00
7824;BME280;3957;48.61947800;9.05303100;2023-02-28T04:36:08;96530.44;;;-4.32;100.00
7824;BME280;3957;48.61947800;9.05303100;2023-02-28T04:37:08;96535.56;;;-4.30;100.00
7824;BME280;3957;48.61947800;9.05303100;2023-02-28T04:38:08;96528.47;;;-4.15;100.00
7824;BME280;3957;48.61947800;9.05303100;2023-02-28T04:39:09;96529.28;;;-4.28;100.00
7824;BME280;3957;48.61947800;9.05303100;2023-02-28T04:40:10;96524.16;;;-4.29;100.00
7824;BME280;3957;48.61947800;9.05303100;2023-02-28T04:41:12;96518.41;;;-4.21;100.00
7824;BME280;3957;48.61947800;9.05303100;2023-02-28T04:42:12;96525.63;;;-4.25;100.00
7824;BME280;3957;48.61947800;9.05303100;2023-02-28T04:43:13;96523.97;;;-4.13;100.00
7824;BME280;3957;48.61947800;9.05303100;2023-02-28T04:44:14;96527.34;;;-4.11;100.00
7824;BME280;3957;48.61947800;9.05303100;2023-02-28T04:45:15;96526.59;;;-4.13;100.00
7824;BME280;3957;48.61947800;9.05303100;2023-02-28T04:46:15;96527.72;;;-4.17;100.00
7824;BME280;3957;48.61947800;9.05303100;2023-02-28T04:47:16;96532.09;;;-4.31;100.00
7824;BME280;3957;48.61947800;9.05303100;2023-02-28T04:48:16;96527.16;;;-4.35;100.00
7824;BME280;3957;48.61947800;9.05303100;2023-02-28T04:49:16;96526.38;;;-4.23;100.00
7824;BME280;3957;48.61947800;9.05303100;2023-02-28T04:50:17;96530.53;;;-4.33;100.00
7824;BME280;3957;48.61947800;9.05303100;2023-02-28T04:51:18;96526.47;;;-4.24;100.00
7824;BME280;3957;48.61947800;9.05303100;2023-02-28T04:52:19;96528.69;;;-4.18;100.00
7824;BME280;3957;48.61947800;9.05303100;2023-02-28T04:53:20;96523.03;;;-4.25;100.00
7824;BME280;3957;48.61947800;9.05303100;2023-02-28T04:54:21;96527.81;;;-4.32;100.00
7824;BME280;3957;48.61947800;9.05303100;2023-02-28T04:55:21;96527.47;;;-4.40;100.00
7824;BME280;3957;48.61947800;9.05303100;2023-02-28T04:56:22;96530.53;;;-4.33;100.00
7824;BME280;3957;48.61947800;9.05303100;2023-02-28T04:57:22;96521.75;;;-4.32;100.00
7824;BME280;3957;48.61947800;9.05303100;2023-02-28T04:58:22;96525.53;;;-4.23;100.00
7824;BME280;3957;48.61947800;9.05303100;2023-02-28T04:59:23;96524.41;;;-4.19;100.00
7824;BME280;3957;48.61947800;9.05303100;2023-02-28T05:00:24;96522.81;;;-4.35;100.00
7824;BME280;3957;48.61947800;9.05303100;2023-02-28T05:02:26;96523.72;;;-4.36;100.00
7824;BME280;3957;48.61947800;9.05303100;2023-02-28T05:03:27;96521.66;;;-4.31;100.00
7824;BME280;3957;48.61947800;9.05303100;2023-02-28T05:04:27;96525.97;;;-4.17;100.00
7824;BME280;3957;48.61947800;9.05303100;2023-02-28T05:05:28;96535.47;;;-4.16;100.00
7824;BME280;3957;48.61947800;9.05303100;2023-02-28T05:06:31;96529.41;;;-4.16;100.00
7824;BME280;3957;48.61947800;9.05303100;2023-02-28T05:07:32;96532.94;;;-4.17;100.00
7824;BME280;3957;48.61947800;9.05303100;2023-02-28T05:08:33;96525.22;;;-4.19;100.00
7824;BME280;3957;48.61947800;9.05303100;2023-02-28T05:09:33;96533.38;;;-4.11;100.00
7824;BME280;3957;48.61947800;9.05303100;2023-02-28T05:10:33;96534.44;;;-4.13;100.00
7824;BME280;3957;48.61947800;9.05303100;2023-02-28T05:11:34;96525.88;;;-4.15;100.00
7824;BME280;3957;48.61947800;9.05303100;2023-02-28T05:12:35;96534.09;;;-4.21;100.00
7824;BME280;3957;48.61947800;9.05303100;2023-02-28T05:13:35;96540.28;;;-4.22;100.00
7824;BME280;3957;48.61947800;9.05303100;2023-02-28T05:14:36;96529.31;;;-4.15;100.00
7824;BME280;3957;48.61947800;9.05303100;2023-02-28T05:15:36;96538.28;;;-4.19;100.00
7824;BME280;3957;48.61947800;9.05303100;2023-02-28T05:16:37;96538.59;;;-4.23;100.00
7824;BME280;3957;48.61947800;9.05303100;2023-02-28T05:17:37;96541.22;;;-4.23;100.00
7824;BME280;3957;48.61947800;9.05303100;2023-02-28T05:18:38;96536.91;;;-4.24;100.00
7824;BME280;3957;48.61947800;9.05303100;2023-02-28T05:19:38;96548.50;;;-4.29;100.00
7824;BME280;3957;48.61947800;9.05303100;2023-02-28T05:20:38;96541.44;;;-4.14;100.00
7824;BME280;3957;48.61947800;9.05303100;2023-02-28T05:21:50;96535.78;;;-4.07;100.00
7824;BME280;3957;48.61947800;9.05303100;2023-02-28T05:22:51;96546.50;;;-3.98;100.00
7824;BME280;3957;48.61947800;9.05303100;2023-02-28T05:23:53;96541.66;;;-4.17;100.00
7824;BME280;3957;48.61947800;9.05303100;2023-02-28T05:24:53;96543.13;;;-4.13;100.00
7824;BME280;3957;48.61947800;9.05303100;2023-02-28T05:25:53;96545.59;;;-4.24;100.00
7824;BME280;3957;48.61947800;9.05303100;2023-02-28T05:26:54;96552.00;;;-4.15;100.00
7824;BME280;3957;48.61947800;9.05303100;2023-02-28T05:27:54;96542.47;;;-4.16;100.00
7824;BME280;3957;48.61947800;9.05303100;2023-02-28T05:28:55;96553.03;;;-4.18;100.00
7824;BME280;3957;48.61947800;9.05303100;2023-02-28T05:29:56;96549.88;;;-4.23;100.00
7824;BME280;3957;48.61947800;9.05303100;2023-02-28T05:30:57;96556.13;;;-4.25;100.00
7824;BME280;3957;48.61947800;9.05303100;2023-02-28T05:31:57;96553.72;;;-4.29;100.00
7824;BME280;3957;48.61947800;9.05303100;2023-02-28T05:32:58;96548.28;;;-4.38;100.00